Catoosa, Oklahoma
Current Conditions -  °F | °C
As of 11:53 PM on Friday 28 Nov 2014 (Local Time) from KTUL Reporting Station
Scattered Clouds Scattered Clouds  
Wind Chill: 56°   Ceiling: Unl
Heat Index: 56°   Visibility: 10mi
Dew Point: 49°   Wind: 15mph
Humidity: 77%   Direction: 170°S
Pressure: 29.82"   Gusts: NA
Location:  36.19°N, 95.75°W
Report Text: KTUL 290553Z 17013KT 10SM SCT250 13/09 A2982 RMK AO2 SLP095 T01330094 10167 20133 401890039 58020
Loading
Personal Weather Stations






























Interactive Weather Map New forecast layout! Learn more

10-Day Weather Forecast

Advertisements
Track Severe Weather on mobile